createdAt,value
2022-12-23T00:01:55.197Z,6.23
2022-12-23T00:03:58.345Z,6.18
2022-12-23T00:06:00.855Z,6.23
2022-12-23T00:08:02.746Z,6.21
2022-12-23T00:10:05.284Z,6.24
2022-12-23T00:12:07.130Z,6.21
2022-12-23T00:14:09.835Z,6.29
2022-12-23T00:16:15.126Z,6.32
2022-12-23T00:18:17.125Z,6.21
2022-12-23T00:20:19.186Z,6.25
2022-12-23T00:22:20.865Z,6.23
2022-12-23T00:24:22.674Z,6.30
2022-12-23T00:26:27.055Z,6.30
2022-12-23T00:28:29.989Z,6.14
2022-12-23T00:30:31.736Z,6.21
2022-12-23T00:32:33.571Z,6.21
2022-12-23T00:34:35.228Z,6.20
2022-12-23T00:36:37.068Z,6.18
2022-12-23T00:38:39.097Z,6.21
2022-12-23T00:40:41.213Z,6.24
2022-12-23T00:42:43.011Z,6.25
2022-12-23T00:44:44.824Z,6.16
2022-12-23T00:46:46.689Z,6.13
2022-12-23T00:48:48.414Z,6.16
2022-12-23T00:50:52.207Z,6.24
2022-12-23T00:52:54.353Z,6.29
2022-12-23T00:54:56.096Z,6.32
2022-12-23T00:56:58.150Z,6.31
2022-12-23T00:59:00.366Z,6.04
2022-12-23T01:01:02.261Z,6.30
2022-12-23T01:03:04.197Z,6.13
2022-12-23T01:05:06.113Z,6.15
2022-12-23T01:07:08.071Z,6.19
2022-12-23T01:09:10.125Z,6.28
2022-12-23T01:11:12.919Z,6.35
2022-12-23T01:13:14.688Z,6.32
2022-12-23T01:15:16.651Z,6.33
2022-12-23T01:17:18.862Z,6.46
2022-12-23T01:19:20.898Z,6.45
2022-12-23T01:21:22.795Z,6.37
2022-12-23T01:23:24.503Z,6.33
2022-12-23T01:25:26.236Z,6.35
2022-12-23T01:27:28.093Z,6.34
2022-12-23T01:29:29.924Z,6.43
2022-12-23T01:31:33.185Z,6.27
2022-12-23T01:33:35.059Z,6.31
2022-12-23T01:35:39.982Z,6.32
2022-12-23T01:37:43.661Z,6.18
2022-12-23T01:39:46.489Z,6.31
2022-12-23T01:41:49.860Z,6.16
2022-12-23T01:43:52.465Z,6.16
2022-12-23T01:45:54.376Z,6.21
2022-12-23T01:47:58.429Z,6.27
2022-12-23T01:50:15.359Z,6.29
2022-12-23T01:52:17.602Z,6.16
2022-12-23T01:54:19.323Z,6.09
2022-12-23T01:56:40.165Z,6.06
2022-12-23T01:58:50.616Z,5.94
2022-12-23T02:00:53.987Z,6.01
2022-12-23T02:02:56.204Z,5.92
2022-12-23T02:04:59.189Z,5.76
2022-12-23T02:07:00.964Z,5.94
2022-12-23T02:09:03.305Z,5.86
2022-12-23T02:11:26.347Z,5.93
2022-12-23T02:14:06.697Z,5.92
2022-12-23T02:16:14.145Z,5.62
2022-12-23T02:18:42.789Z,5.85
2022-12-23T02:21:09.200Z,5.81
2022-12-23T02:23:13.799Z,5.81
2022-12-23T02:25:30.630Z,5.82
2022-12-23T02:27:41.890Z,5.82
2022-12-23T02:30:27.779Z,5.76
2022-12-23T02:32:35.402Z,5.57
2022-12-23T02:34:55.240Z,5.69
2022-12-23T02:37:32.355Z,5.60
2022-12-23T02:40:00.026Z,5.57
2022-12-23T02:42:16.516Z,5.56
2022-12-23T02:44:28.456Z,5.57
2022-12-23T02:46:41.811Z,5.54
2022-12-23T02:48:43.598Z,5.53
2022-12-23T02:50:47.164Z,5.61
2022-12-23T02:52:52.477Z,5.46
2022-12-23T02:54:58.812Z,5.54
2022-12-23T02:57:04.012Z,5.54
2022-12-23T02:59:11.640Z,5.58
2022-12-23T03:01:16.364Z,5.54
2022-12-23T03:03:18.337Z,5.43
2022-12-23T03:05:31.939Z,5.56
2022-12-23T03:07:43.758Z,5.42
2022-12-23T03:10:02.108Z,5.44
2022-12-23T03:12:28.863Z,5.50
2022-12-23T03:15:22.937Z,5.49
2022-12-23T03:17:50.382Z,5.32
2022-12-23T03:20:21.281Z,5.44
2022-12-23T03:22:48.555Z,5.51
2022-12-23T03:25:10.135Z,5.60
2022-12-23T03:27:17.815Z,5.63
2022-12-23T03:29:33.074Z,5.42
2022-12-23T03:31:36.771Z,5.30
2022-12-23T03:33:41.172Z,5.44
2022-12-23T03:35:51.937Z,5.45
2022-12-23T03:37:55.054Z,5.46
2022-12-23T03:40:04.979Z,5.21
2022-12-23T03:42:32.374Z,5.53
2022-12-23T03:44:57.113Z,5.53
2022-12-23T03:47:09.279Z,5.39
2022-12-23T03:49:23.461Z,5.30
2022-12-23T03:51:34.564Z,5.07
2022-12-23T03:53:47.245Z,5.15
2022-12-23T03:55:55.126Z,5.08
2022-12-23T03:58:30.965Z,5.07
2022-12-23T04:00:36.172Z,5.01
2022-12-23T04:03:03.539Z,4.96
2022-12-23T04:05:27.546Z,4.84
2022-12-23T04:07:38.782Z,4.77
2022-12-23T04:09:41.518Z,4.75
2022-12-23T04:11:43.671Z,4.65
2022-12-23T04:13:48.159Z,4.72
2022-12-23T04:16:07.229Z,4.85
2022-12-23T04:18:11.223Z,4.82
2022-12-23T04:20:13.202Z,4.75
2022-12-23T04:22:16.579Z,4.86
2022-12-23T04:24:18.415Z,4.73
2022-12-23T04:26:20.380Z,4.55
2022-12-23T04:28:22.264Z,4.86
2022-12-23T04:30:28.044Z,4.78
2022-12-23T04:32:35.420Z,4.89
2022-12-23T04:34:37.158Z,4.89
2022-12-23T04:36:38.821Z,4.70
2022-12-23T04:38:40.657Z,4.37
2022-12-23T04:40:46.152Z,4.41
2022-12-23T04:42:48.092Z,4.40
2022-12-23T04:44:49.878Z,4.41
2022-12-23T04:46:51.616Z,4.40
2022-12-23T04:48:53.352Z,4.58
2022-12-23T04:50:55.231Z,4.58
2022-12-23T04:52:57.739Z,4.35
2022-12-23T04:54:59.413Z,4.64
2022-12-23T04:57:01.141Z,4.74
2022-12-23T04:59:02.790Z,4.82
2022-12-23T05:01:07.123Z,4.91
2022-12-23T05:03:09.183Z,4.81
2022-12-23T05:05:10.994Z,4.89
2022-12-23T05:07:13.213Z,5.09
2022-12-23T05:09:14.982Z,5.17
2022-12-23T05:11:16.713Z,5.17
2022-12-23T05:13:18.525Z,5.01
2022-12-23T05:15:20.416Z,4.90
2022-12-23T05:17:22.145Z,4.83
2022-12-23T05:19:23.962Z,4.56
2022-12-23T05:21:25.797Z,4.62
2022-12-23T05:23:27.601Z,4.81
2022-12-23T05:25:29.499Z,4.96
2022-12-23T05:27:31.218Z,4.98
2022-12-23T05:29:32.930Z,4.85
2022-12-23T05:31:34.907Z,4.91
2022-12-23T05:33:36.822Z,4.78
2022-12-23T05:35:38.598Z,4.75
2022-12-23T05:37:40.464Z,4.71
2022-12-23T05:39:42.192Z,4.84
2022-12-23T05:41:43.874Z,4.79
2022-12-23T05:43:45.731Z,4.61
2022-12-23T05:45:48.164Z,4.70
2022-12-23T05:47:49.973Z,4.86
2022-12-23T05:49:52.092Z,4.98
2022-12-23T05:51:53.759Z,5.02
2022-12-23T05:53:55.512Z,5.12
2022-12-23T05:55:57.424Z,5.05
2022-12-23T05:57:59.628Z,4.95
2022-12-23T06:00:01.336Z,5.06
2022-12-23T06:02:03.194Z,5.13
2022-12-23T06:04:05.181Z,5.01
2022-12-23T06:06:07.068Z,5.04
2022-12-23T06:08:08.945Z,5.05
2022-12-23T06:10:11.717Z,5.03
2022-12-23T06:12:13.451Z,5.16
2022-12-23T06:14:15.493Z,5.25
2022-12-23T06:16:17.565Z,5.01
2022-12-23T06:18:19.319Z,4.86
2022-12-23T06:20:21.369Z,4.72
2022-12-23T06:22:23.133Z,4.90
2022-12-23T06:24:24.825Z,5.03
2022-12-23T06:26:26.593Z,5.08
2022-12-23T06:28:28.702Z,4.82
2022-12-23T06:30:30.424Z,4.61
2022-12-23T06:32:37.920Z,4.72
2022-12-23T06:34:40.532Z,4.84
2022-12-23T06:36:42.202Z,4.86
2022-12-23T06:38:44.023Z,4.96
2022-12-23T06:40:45.906Z,4.86
2022-12-23T06:42:47.644Z,4.98
2022-12-23T06:44:49.400Z,4.96
2022-12-23T06:46:51.224Z,4.79
2022-12-23T06:48:52.919Z,4.89
2022-12-23T06:50:54.671Z,5.00
2022-12-23T06:52:56.541Z,4.90
2022-12-23T06:54:58.211Z,4.99
2022-12-23T06:57:00.247Z,4.99
2022-12-23T06:59:01.904Z,5.07
2022-12-23T07:01:03.712Z,5.27
2022-12-23T07:03:06.096Z,5.02
2022-12-23T07:05:08.267Z,4.98
2022-12-23T07:07:09.931Z,4.87
2022-12-23T07:09:12.073Z,4.71
2022-12-23T07:11:13.910Z,4.74
2022-12-23T07:13:15.863Z,4.86
2022-12-23T07:15:18.053Z,4.83
2022-12-23T07:17:19.714Z,4.95
2022-12-23T07:19:21.387Z,5.05
2022-12-23T07:21:29.091Z,5.10
2022-12-23T07:23:31.622Z,4.85
2022-12-23T07:25:33.392Z,5.03
2022-12-23T07:27:35.758Z,5.20
2022-12-23T07:29:37.417Z,5.12
2022-12-23T07:31:41.056Z,4.91
2022-12-23T07:33:43.879Z,5.07
2022-12-23T07:35:45.555Z,5.32
2022-12-23T07:37:51.930Z,5.23
2022-12-23T07:39:54.186Z,4.98
2022-12-23T07:42:16.402Z,5.16
2022-12-23T07:44:17.542Z,5.01
2022-12-23T07:46:19.426Z,5.13
2022-12-23T07:48:21.160Z,5.21
2022-12-23T07:50:23.051Z,5.21
2022-12-23T07:52:25.441Z,5.18
2022-12-23T07:54:27.155Z,5.23
2022-12-23T07:56:29.462Z,5.45
2022-12-23T07:58:31.776Z,5.27
2022-12-23T08:00:33.468Z,5.46
2022-12-23T08:02:35.310Z,5.41
2022-12-23T08:04:42.665Z,5.58
2022-12-23T08:06:47.529Z,5.59
2022-12-23T08:08:49.211Z,5.64
2022-12-23T08:10:51.081Z,5.59
2022-12-23T08:12:52.923Z,5.51
2022-12-23T08:14:54.630Z,5.67
2022-12-23T08:16:56.962Z,5.67
2022-12-23T08:18:58.763Z,5.74
2022-12-23T08:21:10.333Z,5.82
2022-12-23T08:23:12.750Z,5.58
2022-12-23T08:25:14.425Z,5.60
2022-12-23T08:27:16.283Z,5.54
2022-12-23T08:29:18.136Z,5.27
2022-12-23T08:31:25.537Z,5.38
2022-12-23T08:33:27.298Z,5.43
2022-12-23T08:35:29.548Z,5.68
2022-12-23T08:37:31.213Z,5.82
2022-12-23T08:39:32.987Z,5.62
2022-12-23T08:41:38.797Z,5.62
2022-12-23T08:43:40.491Z,5.77
2022-12-23T08:45:42.205Z,5.75
2022-12-23T08:47:44.143Z,5.62
2022-12-23T08:49:45.842Z,5.68
2022-12-23T08:51:48.960Z,5.64
2022-12-23T08:53:57.916Z,5.76
2022-12-23T08:56:16.825Z,5.83
2022-12-23T08:58:18.488Z,5.77
2022-12-23T09:00:20.681Z,5.79
2022-12-23T09:02:22.507Z,5.70
2022-12-23T09:04:24.310Z,5.86
2022-12-23T09:06:30.320Z,5.77
2022-12-23T09:08:32.266Z,5.82
2022-12-23T09:10:34.707Z,5.90
2022-12-23T09:12:36.463Z,5.85
2022-12-23T09:14:38.149Z,5.78
2022-12-23T09:16:39.882Z,5.94
2022-12-23T09:18:42.020Z,5.92
2022-12-23T09:20:43.850Z,6.01
2022-12-23T09:22:45.536Z,5.80
2022-12-23T09:24:47.505Z,5.80
2022-12-23T09:26:49.205Z,5.91
2022-12-23T09:28:51.384Z,6.16
2022-12-23T09:30:53.313Z,6.14
2022-12-23T09:32:55.403Z,6.15
2022-12-23T09:34:59.653Z,6.44
2022-12-23T09:37:03.121Z,6.43
2022-12-23T09:39:04.877Z,6.44
2022-12-23T09:41:41.929Z,6.31
2022-12-23T09:43:55.418Z,6.31
2022-12-23T09:46:18.974Z,6.32
2022-12-23T09:48:28.243Z,6.34
2022-12-23T09:50:32.928Z,6.27
2022-12-23T09:52:37.598Z,6.18
2022-12-23T09:54:44.682Z,6.05
2022-12-23T09:56:52.522Z,6.40
2022-12-23T09:59:20.458Z,6.50
2022-12-23T10:01:30.254Z,6.59
2022-12-23T10:03:59.945Z,6.31
2022-12-23T10:06:15.927Z,6.56
2022-12-23T10:08:41.346Z,6.46
2022-12-23T10:10:56.994Z,6.26
2022-12-23T10:13:02.064Z,6.35
2022-12-23T10:15:23.813Z,6.24
2022-12-23T10:17:41.527Z,6.00
2022-12-23T10:19:45.758Z,6.17
2022-12-23T10:22:02.868Z,6.13
2022-12-23T10:24:16.727Z,6.27
2022-12-23T10:26:41.679Z,6.34
2022-12-23T10:28:43.462Z,6.12
2022-12-23T10:31:31.133Z,6.15
2022-12-23T10:33:43.461Z,6.29
2022-12-23T10:36:08.779Z,6.17
2022-12-23T10:38:10.445Z,6.04
2022-12-23T10:40:27.329Z,5.93
2022-12-23T10:42:36.743Z,6.05
2022-12-23T10:44:59.551Z,6.12
2022-12-23T10:47:15.188Z,5.85
2022-12-23T10:49:20.106Z,5.92
2022-12-23T10:51:57.377Z,5.99
2022-12-23T10:54:10.133Z,5.94
2022-12-23T10:56:13.144Z,5.96
2022-12-23T10:58:17.317Z,5.98
2022-12-23T11:00:22.914Z,6.02
2022-12-23T11:02:39.266Z,5.87
2022-12-23T11:04:46.529Z,5.87
2022-12-23T11:07:10.742Z,5.94
2022-12-23T11:09:24.046Z,5.98
2022-12-23T11:11:45.800Z,5.73
2022-12-23T11:13:47.955Z,5.95
2022-12-23T11:15:50.131Z,5.97
2022-12-23T11:18:19.796Z,6.08
2022-12-23T11:20:21.665Z,6.08
2022-12-23T11:22:25.491Z,5.97
2022-12-23T11:24:30.669Z,6.28
2022-12-23T11:26:32.748Z,6.09
2022-12-23T11:28:47.933Z,6.08
2022-12-23T11:31:10.679Z,6.00
2022-12-23T11:33:26.160Z,6.29
2022-12-23T11:35:33.412Z,6.37
2022-12-23T11:37:37.939Z,6.42
2022-12-23T11:39:46.185Z,6.43
2022-12-23T11:41:50.997Z,6.52
2022-12-23T11:44:01.641Z,6.61
2022-12-23T11:46:27.319Z,6.57
2022-12-23T11:48:31.479Z,6.52
2022-12-23T11:50:39.076Z,6.60
2022-12-23T11:52:51.845Z,6.35
2022-12-23T11:54:57.984Z,6.43
2022-12-23T11:57:03.188Z,6.32
2022-12-23T11:59:21.488Z,6.55
2022-12-23T12:01:25.632Z,6.48
2022-12-23T12:03:34.244Z,6.53
2022-12-23T12:05:38.025Z,6.62
2022-12-23T12:07:41.896Z,6.71
2022-12-23T12:09:43.787Z,6.57
2022-12-23T12:11:50.494Z,6.52
2022-12-23T12:13:59.979Z,6.72
2022-12-23T12:16:16.863Z,6.69
2022-12-23T12:18:20.849Z,6.98
2022-12-23T12:20:38.023Z,6.95
2022-12-23T12:22:49.536Z,7.04
2022-12-23T12:24:55.427Z,6.86
2022-12-23T12:27:02.551Z,6.90
2022-12-23T12:29:32.621Z,6.85
2022-12-23T12:31:40.730Z,6.95
2022-12-23T12:33:53.763Z,7.02
2022-12-23T12:36:12.546Z,6.92
2022-12-23T12:38:27.937Z,6.95
2022-12-23T12:40:36.557Z,6.95
2022-12-23T12:42:42.236Z,7.02
2022-12-23T12:44:58.563Z,6.97
2022-12-23T12:47:21.865Z,7.13
2022-12-23T12:49:59.910Z,7.15
2022-12-23T12:52:16.616Z,7.11
2022-12-23T12:54:35.172Z,7.11
2022-12-23T12:56:41.387Z,7.00
2022-12-23T12:58:45.012Z,6.98
2022-12-23T13:01:03.534Z,6.98
2022-12-23T13:03:26.949Z,7.13
2022-12-23T13:05:42.044Z,7.08
2022-12-23T13:07:49.113Z,7.00
2022-12-23T13:09:53.680Z,6.94
2022-12-23T13:12:05.742Z,6.79
2022-12-23T13:14:10.389Z,6.80
2022-12-23T13:16:24.199Z,6.84
2022-12-23T13:18:52.083Z,6.82
2022-12-23T13:21:09.655Z,6.73
2022-12-23T13:23:42.841Z,6.81
2022-12-23T13:25:50.483Z,6.89
2022-12-23T13:28:08.445Z,6.78
2022-12-23T13:30:21.475Z,6.76
2022-12-23T13:32:37.198Z,6.85
2022-12-23T13:35:12.679Z,6.77
2022-12-23T13:37:32.271Z,6.70
2022-12-23T13:39:39.612Z,6.74
2022-12-23T13:41:53.253Z,6.67
2022-12-23T13:43:59.141Z,6.62
2022-12-23T13:46:09.851Z,6.78
2022-12-23T13:48:32.951Z,6.68
2022-12-23T13:50:49.114Z,6.66
2022-12-23T13:53:14.151Z,6.55
2022-12-23T13:55:34.517Z,6.60
2022-12-23T13:57:50.646Z,6.61
2022-12-23T14:00:04.923Z,6.65
2022-12-23T14:02:35.821Z,6.72
2022-12-23T14:04:58.096Z,6.69
2022-12-23T14:07:21.613Z,6.66
2022-12-23T14:09:38.732Z,6.61
2022-12-23T14:11:40.802Z,6.73
2022-12-23T14:13:52.041Z,6.68
2022-12-23T14:16:14.064Z,6.53
2022-12-23T14:18:49.503Z,6.47
2022-12-23T14:21:12.162Z,6.56
2022-12-23T14:23:46.344Z,6.38
2022-12-23T14:25:57.023Z,6.34
2022-12-23T14:28:28.638Z,6.04
2022-12-23T14:30:39.653Z,6.13
2022-12-23T14:32:49.639Z,6.20
2022-12-23T14:35:23.594Z,6.24
2022-12-23T14:37:25.385Z,6.20
2022-12-23T14:39:34.454Z,6.23
2022-12-23T14:41:52.838Z,5.93
2022-12-23T14:43:56.263Z,6.00
2022-12-23T14:46:06.073Z,5.97
2022-12-23T14:48:32.805Z,6.00
2022-12-23T14:50:42.837Z,5.86
2022-12-23T14:52:59.970Z,5.88
2022-12-23T14:55:31.696Z,6.01
2022-12-23T14:57:35.205Z,5.90
2022-12-23T14:59:57.279Z,5.93
2022-12-23T15:02:03.033Z,6.00
2022-12-23T15:04:13.655Z,5.92
2022-12-23T15:06:37.601Z,5.71
2022-12-23T15:08:42.053Z,5.75
2022-12-23T15:10:44.673Z,5.63
2022-12-23T15:12:49.289Z,5.57
2022-12-23T15:14:56.573Z,5.76
2022-12-23T15:16:58.643Z,5.65
2022-12-23T15:19:15.801Z,5.72
2022-12-23T15:21:17.611Z,5.53
2022-12-23T15:23:19.457Z,5.42
2022-12-23T15:25:30.655Z,5.48
2022-12-23T15:27:36.395Z,5.44
2022-12-23T15:29:43.553Z,5.57
2022-12-23T15:31:50.695Z,5.57
2022-12-23T15:34:03.756Z,5.56
2022-12-23T15:36:07.440Z,5.57
2022-12-23T15:38:14.754Z,5.66
2022-12-23T15:40:26.755Z,5.70
2022-12-23T15:42:31.061Z,5.59
2022-12-23T15:44:39.601Z,5.63
2022-12-23T15:46:44.276Z,5.62
2022-12-23T15:48:48.257Z,5.59
2022-12-23T15:50:53.540Z,5.51
2022-12-23T15:53:03.069Z,5.54
2022-12-23T15:55:15.335Z,5.48
2022-12-23T15:57:20.648Z,5.56
2022-12-23T15:59:29.618Z,5.55
2022-12-23T16:01:39.945Z,5.61
2022-12-23T16:03:44.300Z,5.47
2022-12-23T16:05:46.090Z,5.63
2022-12-23T16:07:49.043Z,5.68
2022-12-23T16:09:54.333Z,5.75
2022-12-23T16:12:22.677Z,5.81
2022-12-23T16:14:30.392Z,5.79
2022-12-23T16:16:42.923Z,5.61
2022-12-23T16:18:47.648Z,5.68
2022-12-23T16:20:53.412Z,5.66
2022-12-23T16:23:00.693Z,5.56
2022-12-23T16:25:11.668Z,5.81
2022-12-23T16:27:19.565Z,5.56
2022-12-23T16:29:21.339Z,5.69
2022-12-23T16:31:24.315Z,5.78
2022-12-23T16:33:35.636Z,5.51
2022-12-23T16:35:42.720Z,5.50
2022-12-23T16:37:47.597Z,5.50
2022-12-23T16:39:52.726Z,5.55
2022-12-23T16:41:54.383Z,5.62
2022-12-23T16:43:56.130Z,5.75
2022-12-23T16:45:58.398Z,5.48
2022-12-23T16:48:01.059Z,5.56
2022-12-23T16:50:03.022Z,5.81
2022-12-23T16:52:07.716Z,5.78
2022-12-23T16:54:14.942Z,5.94
2022-12-23T16:56:19.383Z,5.66
2022-12-23T16:58:21.288Z,5.58
2022-12-23T17:00:23.127Z,5.84
2022-12-23T17:02:27.861Z,5.50
2022-12-23T17:04:29.681Z,5.79
2022-12-23T17:06:31.384Z,5.70
2022-12-23T17:08:33.117Z,5.69
2022-12-23T17:10:35.455Z,5.55
2022-12-23T17:12:37.210Z,5.49
2022-12-23T17:14:39.039Z,5.64
2022-12-23T17:16:40.887Z,5.72
2022-12-23T17:18:42.654Z,5.46
2022-12-23T17:20:48.732Z,5.59
2022-12-23T17:22:57.604Z,5.48
2022-12-23T17:24:59.313Z,5.29
2022-12-23T17:27:01.141Z,5.38
2022-12-23T17:29:04.979Z,5.72
2022-12-23T17:31:13.696Z,5.59
2022-12-23T17:33:18.498Z,5.68
2022-12-23T17:35:20.305Z,5.63
2022-12-23T17:37:22.352Z,5.62
2022-12-23T17:39:24.050Z,5.63
2022-12-23T17:41:30.701Z,5.68
2022-12-23T17:43:32.403Z,5.81
2022-12-23T17:45:34.163Z,5.79
2022-12-23T17:47:35.999Z,5.50
2022-12-23T17:49:37.710Z,5.56
2022-12-23T17:51:40.551Z,5.33
2022-12-23T17:53:42.340Z,5.34
2022-12-23T17:55:44.425Z,5.24
2022-12-23T17:57:46.121Z,5.35
2022-12-23T17:59:49.499Z,5.37
2022-12-23T18:01:51.395Z,5.29
2022-12-23T18:03:54.112Z,5.11
2022-12-23T18:06:01.594Z,5.24
2022-12-23T18:08:04.119Z,5.12
2022-12-23T18:10:06.622Z,5.23
2022-12-23T18:12:24.968Z,5.20
2022-12-23T18:14:27.002Z,5.38
2022-12-23T18:16:30.683Z,5.30
2022-12-23T18:18:43.717Z,5.49
2022-12-23T18:20:50.962Z,5.48
2022-12-23T18:22:54.550Z,5.39
2022-12-23T18:24:59.392Z,5.51
2022-12-23T18:27:01.853Z,5.52
2022-12-23T18:29:03.628Z,5.41
2022-12-23T18:31:05.538Z,5.38
2022-12-23T18:33:12.748Z,5.58
2022-12-23T18:35:30.527Z,5.42
2022-12-23T18:37:32.708Z,5.31
2022-12-23T18:39:35.087Z,5.24
2022-12-23T18:41:36.786Z,5.13
2022-12-23T18:43:39.019Z,5.18
2022-12-23T18:45:41.934Z,5.15
2022-12-23T18:47:44.351Z,5.09
2022-12-23T18:49:51.340Z,5.15
2022-12-23T18:51:55.135Z,5.11
2022-12-23T18:53:56.868Z,4.95
2022-12-23T18:55:58.726Z,5.03
2022-12-23T18:58:01.149Z,4.97
2022-12-23T19:00:07.755Z,5.03
2022-12-23T19:02:12.799Z,5.03
2022-12-23T19:04:15.203Z,4.74
2022-12-23T19:06:17.245Z,4.88
2022-12-23T19:08:25.793Z,4.97
2022-12-23T19:10:33.113Z,5.02
2022-12-23T19:12:34.871Z,5.05
2022-12-23T19:14:39.010Z,5.00
2022-12-23T19:16:44.673Z,5.16
2022-12-23T19:18:50.688Z,5.17
2022-12-23T19:20:52.420Z,5.07
2022-12-23T19:22:54.151Z,5.23
2022-12-23T19:25:05.396Z,5.18
2022-12-23T19:27:08.118Z,5.11
2022-12-23T19:29:10.195Z,5.17
2022-12-23T19:31:15.413Z,5.06
2022-12-23T19:33:17.579Z,5.12
2022-12-23T19:35:19.733Z,5.10
2022-12-23T19:37:21.548Z,5.00
2022-12-23T19:39:23.583Z,5.18
2022-12-23T19:41:25.931Z,5.25
2022-12-23T19:43:27.870Z,5.23
2022-12-23T19:45:30.276Z,5.19
2022-12-23T19:47:31.984Z,5.06
2022-12-23T19:49:34.025Z,5.27
2022-12-23T19:51:41.127Z,5.21
2022-12-23T19:53:43.595Z,5.20
2022-12-23T19:55:45.583Z,5.07
2022-12-23T19:57:47.306Z,5.20
2022-12-23T19:59:49.084Z,5.34
2022-12-23T20:01:50.875Z,5.20
2022-12-23T20:03:54.925Z,5.24
2022-12-23T20:05:56.658Z,5.22
2022-12-23T20:07:58.788Z,5.26
2022-12-23T20:10:00.516Z,5.29
2022-12-23T20:12:02.410Z,5.38
2022-12-23T20:14:05.895Z,5.29
2022-12-23T20:16:08.777Z,5.29
2022-12-23T20:18:10.520Z,5.48
2022-12-23T20:20:12.585Z,5.42
2022-12-23T20:22:14.495Z,5.44
2022-12-23T20:24:16.478Z,5.54
2022-12-23T20:26:19.274Z,5.65
2022-12-23T20:28:22.083Z,5.61
2022-12-23T20:30:23.756Z,5.63
2022-12-23T20:32:25.578Z,5.79
2022-12-23T20:34:27.459Z,5.69
2022-12-23T20:36:32.842Z,5.88
2022-12-23T20:38:39.040Z,5.61
2022-12-23T20:40:41.075Z,5.54
2022-12-23T20:42:42.766Z,5.61
2022-12-23T20:44:44.622Z,5.60
2022-12-23T20:46:46.516Z,5.40
2022-12-23T20:48:49.471Z,5.57
2022-12-23T20:50:51.371Z,5.50
2022-12-23T20:52:53.242Z,5.60
2022-12-23T20:54:54.944Z,5.84
2022-12-23T20:56:57.061Z,5.79
2022-12-23T20:58:58.998Z,5.87
2022-12-23T21:01:10.897Z,5.90
2022-12-23T21:03:12.786Z,5.83
2022-12-23T21:05:14.602Z,5.63
2022-12-23T21:07:16.323Z,5.31
2022-12-23T21:09:18.136Z,5.40
2022-12-23T21:11:19.857Z,5.58
2022-12-23T21:13:21.616Z,5.64
2022-12-23T21:15:23.470Z,5.55
2022-12-23T21:17:25.212Z,5.60
2022-12-23T21:19:27.007Z,5.54
2022-12-23T21:21:29.441Z,5.84
2022-12-23T21:23:31.890Z,5.79
2022-12-23T21:25:33.622Z,5.68
2022-12-23T21:27:35.444Z,5.59
2022-12-23T21:29:37.332Z,5.60
2022-12-23T21:31:45.182Z,5.43
2022-12-23T21:33:47.804Z,5.44
2022-12-23T21:35:49.617Z,5.58
2022-12-23T21:37:54.322Z,5.56
2022-12-23T21:39:56.143Z,5.46
2022-12-23T21:41:57.855Z,5.37
2022-12-23T21:44:03.168Z,5.34
2022-12-23T21:46:08.144Z,5.46
2022-12-23T21:48:09.897Z,5.49
2022-12-23T21:50:11.614Z,5.53
2022-12-23T21:52:13.374Z,5.67
2022-12-23T21:54:15.480Z,5.64
2022-12-23T21:56:25.351Z,5.71
2022-12-23T21:58:27.203Z,5.83
2022-12-23T22:00:28.984Z,5.76
2022-12-23T22:02:30.780Z,5.64
2022-12-23T22:04:32.764Z,5.82
2022-12-23T22:06:40.364Z,5.83
2022-12-23T22:08:42.397Z,5.84
2022-12-23T22:10:44.399Z,5.85
2022-12-23T22:12:46.403Z,5.98
2022-12-23T22:14:48.118Z,5.98
2022-12-23T22:16:50.175Z,5.85
2022-12-23T22:18:54.337Z,5.86
2022-12-23T22:20:56.131Z,5.66
2022-12-23T22:22:57.820Z,5.54
2022-12-23T22:24:59.673Z,5.69
2022-12-23T22:27:01.368Z,5.69
2022-12-23T22:29:11.023Z,5.77
2022-12-23T22:31:24.328Z,5.63
2022-12-23T22:33:26.081Z,5.70
2022-12-23T22:35:27.904Z,5.69
2022-12-23T22:37:29.800Z,5.58
2022-12-23T22:39:34.317Z,5.64
2022-12-23T22:41:37.045Z,5.61
2022-12-23T22:43:38.934Z,5.70
2022-12-23T22:45:40.691Z,5.76
2022-12-23T22:47:43.826Z,5.70
2022-12-23T22:49:45.865Z,5.64
2022-12-23T22:51:47.579Z,5.87
2022-12-23T22:53:49.682Z,5.72
2022-12-23T22:56:01.078Z,5.56
2022-12-23T22:58:02.748Z,5.70
2022-12-23T23:00:12.198Z,5.72
2022-12-23T23:02:14.740Z,5.72
2022-12-23T23:04:19.751Z,5.51
2022-12-23T23:06:36.495Z,5.60
2022-12-23T23:08:41.955Z,5.64
2022-12-23T23:10:44.716Z,5.69
2022-12-23T23:12:46.426Z,5.64
2022-12-23T23:14:48.164Z,5.62
2022-12-23T23:16:49.881Z,5.54
2022-12-23T23:18:52.491Z,5.47
2022-12-23T23:20:54.620Z,5.41
2022-12-23T23:22:59.411Z,5.43
2022-12-23T23:25:01.147Z,5.62
2022-12-23T23:27:03.023Z,5.62
2022-12-23T23:29:05.055Z,5.44
2022-12-23T23:33:33.091Z,5.30
2022-12-23T23:35:35.657Z,5.48
2022-12-23T23:37:37.615Z,5.61
2022-12-23T23:39:39.553Z,5.53
2022-12-23T23:41:41.809Z,5.44
2022-12-23T23:43:43.538Z,5.52
2022-12-23T23:45:48.385Z,5.39
2022-12-23T23:47:50.254Z,5.56
2022-12-23T23:49:52.456Z,5.58
2022-12-23T23:51:55.029Z,5.56
2022-12-23T23:53:56.716Z,5.48
2022-12-23T23:56:03.834Z,5.34
2022-12-23T23:58:07.045Z,5.35
